Terminal Aerodrome Forecast
Issued by NWS Greer, SC

Home | Current Version | Previous Version | Text Only | Print | Product List | Glossary On
Versions: 1 2 3 4 5 6 7 8 9 10 11 12 13 14 15 16 17 18 19 20 21 22 23 24 25 26 27 28 29 30 31 32
382
FTUS42 KGSP 271748
TAFGSP
TAF
KGSP 271748Z 2718/2818 VRB03KT P6SM SCT025 BKN250
      TEMPO 2718/2722 BKN025
     FM272200 17005KT P6SM VCSH BKN030
     FM280300 08004KT P6SM OVC025 PROB30 2803/2809 4SM SHRA BR
      OVC015
     FM280900 05005KT 6SM SHRA BR OVC015
     FM281400 05009KT 4SM SHRA OVC008=

USA.gov is the U.S. government's official web portal to all federal, state and local government web resources and services.